createdAt,value
2019-04-29T00:01:32.624Z,97083.75
2019-04-29T00:04:30.317Z,97086.44
2019-04-29T00:07:34.671Z,97076.67
2019-04-29T00:10:44.655Z,97077.51
2019-04-29T00:13:56.307Z,97083.00
2019-04-29T00:17:00.714Z,97080.79
2019-04-29T00:20:16.205Z,97083.88
2019-04-29T00:23:27.484Z,97078.11
2019-04-29T00:26:31.345Z,97074.94
2019-04-29T00:29:38.294Z,97073.23
2019-04-29T00:32:49.719Z,97070.16
2019-04-29T00:35:57.438Z,97071.98
2019-04-29T00:39:12.544Z,97070.28
2019-04-29T00:42:18.975Z,97072.48
2019-04-29T00:45:32.523Z,97074.78
2019-04-29T00:48:33.379Z,97069.80
2019-04-29T00:51:30.651Z,97063.91
2019-04-29T00:54:30.403Z,97064.42
2019-04-29T00:57:49.782Z,97063.55
2019-04-29T01:00:57.299Z,97060.88
2019-04-29T01:04:03.506Z,97058.66
2019-04-29T01:07:15.212Z,97061.82
2019-04-29T01:10:32.047Z,97057.43
2019-04-29T01:13:33.683Z,97057.91
2019-04-29T01:16:40.696Z,97060.59
2019-04-29T01:19:38.099Z,97053.88
2019-04-29T01:23:01.077Z,97058.50
2019-04-29T01:26:15.951Z,97055.81
2019-04-29T01:29:29.761Z,97057.28
2019-04-29T01:32:36.190Z,97054.59
2019-04-29T01:35:39.044Z,97054.59
2019-04-29T01:38:48.607Z,97057.28
2019-04-29T01:42:11.037Z,97057.75
2019-04-29T01:45:28.457Z,97057.39
2019-04-29T01:48:34.732Z,97059.97
2019-04-29T01:52:05.573Z,97049.33
2019-04-29T01:54:55.497Z,97044.44
2019-04-29T01:58:08.831Z,97046.73
2019-04-29T02:01:22.442Z,97047.59
2019-04-29T02:04:24.974Z,97044.55
2019-04-29T02:07:18.684Z,97036.49
2019-04-29T02:10:49.090Z,97034.64
2019-04-29T02:14:06.945Z,97036.84
2019-04-29T02:17:03.839Z,97034.16
2019-04-29T02:20:10.342Z,97041.36
2019-04-29T02:23:40.127Z,97036.97
2019-04-29T02:26:34.797Z,97032.55
2019-04-29T02:29:29.159Z,97030.84
2019-04-29T02:32:38.643Z,97032.66
2019-04-29T02:35:39.552Z,97033.05
2019-04-29T02:39:00.723Z,97035.35
2019-04-29T02:42:06.574Z,97029.11
2019-04-29T02:45:15.327Z,97039.86
2019-04-29T02:48:20.128Z,97034.48
2019-04-29T02:51:27.861Z,97036.81
2019-04-29T02:54:46.587Z,97043.05
2019-04-29T02:58:03.179Z,97045.83
2019-04-29T03:01:32.838Z,97050.25
2019-04-29T03:04:37.138Z,97046.34
2019-04-29T03:08:01.226Z,97048.91
2019-04-29T03:11:15.686Z,97039.62
2019-04-29T03:14:23.064Z,97045.34
2019-04-29T03:17:23.498Z,97035.95
2019-04-29T03:20:59.962Z,97030.30
2019-04-29T03:24:07.653Z,97032.78
2019-04-29T03:27:22.404Z,97041.80
2019-04-29T03:30:36.214Z,97037.41
2019-04-29T03:33:46.039Z,97034.25
2019-04-29T03:36:41.430Z,97035.59
2019-04-29T03:39:45.806Z,97023.58
2019-04-29T03:42:54.538Z,97021.41
2019-04-29T03:46:10.902Z,97024.92
2019-04-29T03:49:15.717Z,97021.76
2019-04-29T03:52:25.085Z,97022.23
2019-04-29T03:55:40.372Z,97015.64
2019-04-29T03:58:51.009Z,97016.50
2019-04-29T04:02:18.401Z,97017.38
2019-04-29T04:05:42.065Z,97010.66
2019-04-29T04:09:05.843Z,97019.19
2019-04-29T04:12:15.140Z,97016.11
2019-04-29T04:15:30.401Z,97019.55
2019-04-29T04:18:27.676Z,97011.49
2019-04-29T04:21:43.233Z,97005.28
2019-04-29T04:25:04.959Z,97014.92
2019-04-29T04:27:55.991Z,97005.52
2019-04-29T04:30:59.934Z,97008.13
2019-04-29T04:34:08.927Z,97000.06
2019-04-29T04:37:08.396Z,97006.06
2019-04-29T04:40:20.885Z,96999.70
2019-04-29T04:43:15.038Z,96993.85
2019-04-29T04:46:18.380Z,97000.96
2019-04-29T04:49:27.197Z,96998.75
2019-04-29T04:52:21.621Z,96994.72
2019-04-29T04:55:31.918Z,96987.88
2019-04-29T04:58:40.094Z,96983.49
2019-04-29T05:01:55.154Z,96987.02
2019-04-29T05:05:01.877Z,96991.31
2019-04-29T05:07:56.588Z,96985.58
2019-04-29T05:11:15.944Z,96984.13
2019-04-29T05:14:25.863Z,96979.10
2019-04-29T05:17:35.271Z,96978.03
2019-04-29T05:20:50.786Z,96972.53
2019-04-29T05:23:57.561Z,96977.43
2019-04-29T05:27:15.865Z,96973.28
2019-04-29T05:30:28.639Z,96964.38
2019-04-29T05:33:36.829Z,96973.67
2019-04-29T05:37:00.663Z,96965.96
2019-04-29T05:40:19.723Z,96966.23
2019-04-29T05:43:27.177Z,96966.50
2019-04-29T05:46:45.667Z,96958.31
2019-04-29T05:49:59.255Z,96961.74
2019-04-29T05:53:27.663Z,96958.70
2019-04-29T05:56:40.928Z,96946.48
2019-04-29T05:59:57.747Z,96951.38
2019-04-29T06:03:21.666Z,96947.34
2019-04-29T06:06:25.211Z,96945.88
2019-04-29T06:09:29.302Z,96948.57
2019-04-29T06:12:55.463Z,96943.55
2019-04-29T06:16:05.575Z,96930.58
2019-04-29T06:19:27.250Z,96935.88
2019-04-29T06:22:47.306Z,96937.57
2019-04-29T06:25:56.848Z,96924.25
2019-04-29T06:29:06.056Z,96924.38
2019-04-29T06:32:20.286Z,96922.64
2019-04-29T06:35:26.144Z,96919.00
2019-04-29T06:38:36.546Z,96921.17
2019-04-29T06:41:40.623Z,96920.70
2019-04-29T06:44:39.573Z,96925.12
2019-04-29T06:47:50.457Z,96917.53
2019-04-29T06:51:10.252Z,96920.58
2019-04-29T06:54:25.449Z,96919.35
2019-04-29T06:57:29.601Z,96917.14
2019-04-29T07:00:41.609Z,96922.52
2019-04-29T07:03:35.442Z,96914.84
2019-04-29T07:06:57.069Z,96908.59
2019-04-29T07:09:57.166Z,96910.33
2019-04-29T07:13:08.885Z,96909.82
2019-04-29T07:16:21.753Z,96906.30
2019-04-29T07:19:41.428Z,96902.75
2019-04-29T07:22:50.858Z,96903.97
2019-04-29T07:25:58.567Z,96901.88
2019-04-29T07:29:00.656Z,96898.47
2019-04-29T07:32:24.117Z,96900.80
2019-04-29T07:35:18.822Z,96900.80
2019-04-29T07:38:46.483Z,96895.78
2019-04-29T07:41:58.515Z,96894.43
2019-04-29T07:45:27.792Z,96890.40
2019-04-29T07:48:23.960Z,96887.23
2019-04-29T07:51:28.029Z,96888.58
2019-04-29T07:54:33.451Z,96889.45
2019-04-29T07:57:53.262Z,96887.62
2019-04-29T08:01:15.241Z,96891.66
2019-04-29T08:04:40.554Z,96888.97
2019-04-29T08:07:58.094Z,96884.94
2019-04-29T08:11:15.687Z,96894.34
2019-04-29T08:14:29.945Z,96891.14
2019-04-29T08:17:51.398Z,96888.84
2019-04-29T08:21:04.209Z,96896.78
2019-04-29T08:24:24.967Z,96880.66
2019-04-29T08:27:39.982Z,96887.38
2019-04-29T08:31:06.306Z,96894.70
2019-04-29T08:34:02.533Z,96892.13
2019-04-29T08:37:29.080Z,96895.10
2019-04-29T08:40:50.003Z,96897.09
2019-04-29T08:44:16.226Z,96895.16
2019-04-29T08:47:30.432Z,96891.58
2019-04-29T08:50:31.821Z,96892.19
2019-04-29T08:53:42.057Z,96893.38
2019-04-29T08:57:02.692Z,96885.09
2019-04-29T08:59:55.197Z,96888.61
2019-04-29T09:02:54.454Z,96883.20
2019-04-29T09:06:05.544Z,96883.05
2019-04-29T09:09:10.577Z,96892.69
2019-04-29T09:12:01.623Z,96887.41
2019-04-29T09:14:46.442Z,96896.05
2019-04-29T09:17:50.283Z,96889.46
2019-04-29T09:21:13.487Z,96889.94
2019-04-29T09:24:28.581Z,96887.84
2019-04-29T09:27:40.830Z,96888.08
2019-04-29T09:30:38.481Z,96889.03
2019-04-29T09:33:48.987Z,96885.00
2019-04-29T09:37:00.652Z,96884.65
2019-04-29T09:40:08.392Z,96890.22
2019-04-29T09:43:32.841Z,96885.72
2019-04-29T09:46:43.885Z,96882.71
2019-04-29T09:49:57.161Z,96888.12
2019-04-29T09:53:15.275Z,96889.70
2019-04-29T09:56:30.743Z,96881.64
2019-04-29T10:00:07.110Z,96879.95
2019-04-29T10:03:10.949Z,96878.01
2019-04-29T10:06:20.111Z,96875.59
2019-04-29T10:09:21.866Z,96874.64
2019-04-29T10:12:28.866Z,96873.66
2019-04-29T10:15:31.385Z,96867.42
2019-04-29T10:18:30.219Z,96873.18
2019-04-29T10:21:35.157Z,96857.43
2019-04-29T10:24:37.769Z,96859.63
2019-04-29T10:27:42.359Z,96869.03
2019-04-29T10:30:49.978Z,96858.17
2019-04-29T10:33:50.192Z,96860.38
2019-04-29T10:36:54.448Z,96855.25
2019-04-29T10:40:19.841Z,96852.92
2019-04-29T10:43:35.787Z,96857.07
2019-04-29T10:46:51.134Z,96864.89
2019-04-29T10:50:10.559Z,96867.51
2019-04-29T10:53:03.072Z,96867.12
2019-04-29T10:55:45.147Z,96871.05
2019-04-29T10:58:35.966Z,96869.13
2019-04-29T11:02:31.985Z,96870.34
2019-04-29T11:05:59.808Z,96872.31
2019-04-29T11:08:59.772Z,96875.98
2019-04-29T11:12:08.889Z,96875.12
2019-04-29T11:15:02.456Z,96877.92
2019-04-29T11:18:12.189Z,96871.69
2019-04-29T11:21:20.733Z,96882.42
2019-04-29T11:24:42.193Z,96882.03
2019-04-29T11:27:59.460Z,96882.03
2019-04-29T11:30:49.373Z,96870.47
2019-04-29T11:33:58.479Z,96869.63
2019-04-29T11:36:58.589Z,96872.34
2019-04-29T11:40:06.120Z,96863.70
2019-04-29T11:43:17.336Z,96861.40
2019-04-29T11:46:14.457Z,96863.97
2019-04-29T11:48:50.577Z,96862.41
2019-04-29T11:51:54.205Z,96858.23
2019-04-29T11:54:17.572Z,96861.40
2019-04-29T11:56:44.896Z,96856.66
2019-04-29T11:59:23.815Z,96858.06
2019-04-29T12:02:09.009Z,96855.52
2019-04-29T12:04:42.530Z,96856.66
2019-04-29T12:07:12.808Z,96855.94
2019-04-29T12:09:43.264Z,96855.34
2019-04-29T12:12:14.617Z,96859.03
2019-04-29T12:15:03.752Z,96850.97
2019-04-29T12:17:37.831Z,96851.72
2019-04-29T12:20:21.992Z,96855.03
2019-04-29T12:22:52.250Z,96860.67
2019-04-29T12:25:27.488Z,96855.65
2019-04-29T12:28:01.427Z,96857.38
2019-04-29T12:30:34.580Z,96854.57
2019-04-29T12:33:32.263Z,96855.80
2019-04-29T12:36:06.559Z,96853.02
2019-04-29T12:38:54.456Z,96853.02
2019-04-29T12:42:00.583Z,96844.76
2019-04-29T12:44:49.151Z,96838.41
2019-04-29T12:47:27.267Z,96838.91
2019-04-29T12:49:57.543Z,96837.35
2019-04-29T12:52:28.038Z,96837.11
2019-04-29T12:55:03.075Z,96829.44
2019-04-29T12:57:32.377Z,96833.22
2019-04-29T13:00:07.555Z,96822.47
2019-04-29T13:03:01.885Z,96825.77
2019-04-29T13:05:57.159Z,96816.76
2019-04-29T13:08:38.029Z,96819.58
2019-04-29T13:11:08.612Z,96820.80
2019-04-29T13:13:38.825Z,96819.25
2019-04-29T13:16:37.089Z,96815.09
2019-04-29T13:19:29.737Z,96813.62
2019-04-29T13:21:58.219Z,96812.15
2019-04-29T13:24:28.634Z,96816.18
2019-04-29T13:26:59.093Z,96812.60
2019-04-29T13:29:32.150Z,96812.25
2019-04-29T13:32:01.894Z,96808.95
2019-04-29T13:34:36.802Z,96808.59
2019-04-29T13:37:12.201Z,96808.37
2019-04-29T13:39:40.683Z,96801.91
2019-04-29T13:42:15.274Z,96805.81
2019-04-29T13:45:04.479Z,96805.69
2019-04-29T13:47:40.082Z,96800.70
2019-04-29T13:50:37.962Z,96796.55
2019-04-29T13:52:53.086Z,96796.90
2019-04-29T13:55:46.695Z,96791.52
2019-04-29T13:57:55.312Z,96793.61
2019-04-29T14:00:37.690Z,96789.96
2019-04-29T14:03:14.039Z,96787.63
2019-04-29T14:05:44.573Z,96783.11
2019-04-29T14:08:14.751Z,96780.97
2019-04-29T14:10:46.712Z,96776.66
2019-04-29T14:13:21.014Z,96779.13
2019-04-29T14:15:50.164Z,96777.55
2019-04-29T14:18:20.673Z,96778.67
2019-04-29T14:20:51.889Z,96779.76
2019-04-29T14:23:23.347Z,96780.50
2019-04-29T14:25:54.656Z,96785.52
2019-04-29T14:28:24.872Z,96784.44
2019-04-29T14:30:55.942Z,96775.86
2019-04-29T14:33:30.833Z,96775.13
2019-04-29T14:36:07.574Z,96776.37
2019-04-29T14:38:40.484Z,96771.35
2019-04-29T14:41:09.729Z,96774.05
2019-04-29T14:44:08.081Z,96774.05
2019-04-29T14:46:52.260Z,96772.09
2019-04-29T14:49:23.466Z,96770.02
2019-04-29T14:51:52.319Z,96769.27
2019-04-29T14:54:22.679Z,96768.66
2019-04-29T14:56:53.051Z,96765.23
2019-04-29T14:59:23.508Z,96765.50
2019-04-29T15:02:04.839Z,96765.38
2019-04-29T15:04:37.513Z,96771.48
2019-04-29T15:07:07.894Z,96765.16
2019-04-29T15:09:55.969Z,96769.06
2019-04-29T15:12:51.804Z,96772.61
2019-04-29T15:15:43.129Z,96766.73
2019-04-29T15:18:47.426Z,96774.44
2019-04-29T15:21:13.444Z,96772.09
2019-04-29T15:23:43.763Z,96771.63
2019-04-29T15:26:13.939Z,96769.80
2019-04-29T15:28:53.565Z,96770.16
2019-04-29T15:31:24.302Z,96771.50
2019-04-29T15:33:54.566Z,96772.84
2019-04-29T15:36:24.819Z,96775.66
2019-04-29T15:39:08.635Z,96774.44
2019-04-29T15:41:31.022Z,96774.44
2019-04-29T15:44:06.980Z,96777.98
2019-04-29T15:46:45.270Z,96771.27
2019-04-29T15:49:02.814Z,96772.84
2019-04-29T15:51:33.106Z,96773.83
2019-04-29T15:54:03.371Z,96775.17
2019-04-29T15:56:38.295Z,96764.42
2019-04-29T15:59:08.924Z,96765.77
2019-04-29T16:01:41.065Z,96769.28
2019-04-29T16:04:12.938Z,96770.63
2019-04-29T16:07:05.071Z,96768.80
2019-04-29T16:09:51.790Z,96777.34
2019-04-29T16:12:22.573Z,96767.94
2019-04-29T16:14:52.948Z,96771.14
2019-04-29T16:17:23.180Z,96771.63
2019-04-29T16:19:53.553Z,96770.28
2019-04-29T16:22:23.868Z,96777.86
2019-04-29T16:24:59.285Z,96777.86
2019-04-29T16:27:26.400Z,96772.61
2019-04-29T16:29:56.801Z,96772.48
2019-04-29T16:32:32.938Z,96771.97
2019-04-29T16:35:03.132Z,96771.97
2019-04-29T16:37:33.449Z,96775.91
2019-04-29T16:40:03.749Z,96772.84
2019-04-29T16:42:53.167Z,96773.31
2019-04-29T16:45:28.249Z,96774.05
2019-04-29T16:47:58.554Z,96765.16
2019-04-29T16:50:28.765Z,96772.36
2019-04-29T16:52:58.988Z,96773.22
2019-04-29T16:55:29.293Z,96771.50
2019-04-29T16:58:05.863Z,96774.19
2019-04-29T17:00:33.908Z,96775.53
2019-04-29T17:03:04.200Z,96776.00
2019-04-29T17:05:34.377Z,96784.45
2019-04-29T17:08:09.393Z,96782.98
2019-04-29T17:11:04.765Z,96783.38
2019-04-29T17:13:35.018Z,96784.72
2019-04-29T17:16:07.098Z,96783.38
2019-04-29T17:18:38.071Z,96778.00
2019-04-29T17:21:08.268Z,96787.76
2019-04-29T17:23:38.540Z,96788.23
2019-04-29T17:26:08.798Z,96791.66
2019-04-29T17:29:11.504Z,96792.66
2019-04-29T17:31:57.140Z,96793.61
2019-04-29T17:34:56.861Z,96790.92
2019-04-29T17:37:01.892Z,96794.48
2019-04-29T17:39:32.587Z,96796.81
2019-04-29T17:42:03.996Z,96793.14
2019-04-29T17:44:45.735Z,96807.92
2019-04-29T17:47:30.143Z,96805.71
2019-04-29T17:50:39.255Z,96796.30
2019-04-29T17:53:24.997Z,96804.36
2019-04-29T17:56:17.062Z,96803.62
2019-04-29T17:58:58.097Z,96801.53
2019-04-29T18:01:42.893Z,96803.74
2019-04-29T18:04:37.281Z,96806.82
2019-04-29T18:07:25.603Z,96804.12
2019-04-29T18:10:05.385Z,96801.80
2019-04-29T18:12:40.961Z,96799.59
2019-04-29T18:15:17.715Z,96804.48
2019-04-29T18:17:45.526Z,96808.04
2019-04-29T18:20:35.595Z,96803.14
2019-04-29T18:23:24.711Z,96799.97
2019-04-29T18:26:02.096Z,96804.00
2019-04-29T18:28:32.997Z,96804.88
2019-04-29T18:31:05.896Z,96805.83
2019-04-29T18:33:37.476Z,96811.08
2019-04-29T18:36:19.315Z,96810.13
2019-04-29T18:38:42.432Z,96810.48
2019-04-29T18:41:16.422Z,96805.09
2019-04-29T18:43:45.199Z,96811.22
2019-04-29T18:46:16.756Z,96810.34
2019-04-29T18:48:47.277Z,96811.70
2019-04-29T18:51:20.789Z,96805.84
2019-04-29T18:53:49.839Z,96808.78
2019-04-29T18:56:20.061Z,96815.77
2019-04-29T18:58:50.462Z,96817.85
2019-04-29T19:01:24.045Z,96816.86
2019-04-29T19:04:10.225Z,96817.25
2019-04-29T19:06:40.594Z,96820.77
2019-04-29T19:09:17.775Z,96824.80
2019-04-29T19:11:43.510Z,96817.63
2019-04-29T19:14:15.108Z,96821.19
2019-04-29T19:16:47.015Z,96818.02
2019-04-29T19:19:18.881Z,96822.89
2019-04-29T19:21:49.434Z,96820.70
2019-04-29T19:24:19.926Z,96816.67
2019-04-29T19:26:55.725Z,96823.75
2019-04-29T19:29:24.356Z,96821.06
2019-04-29T19:31:55.014Z,96821.92
2019-04-29T19:34:25.597Z,96822.80
2019-04-29T19:36:59.375Z,96818.76
2019-04-29T19:39:28.709Z,96824.49
2019-04-29T19:41:59.255Z,96826.22
2019-04-29T19:44:33.291Z,96820.84
2019-04-29T19:47:01.652Z,96814.47
2019-04-29T19:49:32.783Z,96825.23
2019-04-29T19:52:05.893Z,96827.56
2019-04-29T19:54:36.344Z,96831.95
2019-04-29T19:57:07.742Z,96832.34
2019-04-29T19:59:38.735Z,96824.75
2019-04-29T20:02:10.291Z,96822.54
2019-04-29T20:04:52.323Z,96829.74
2019-04-29T20:07:23.404Z,96825.61
2019-04-29T20:10:05.449Z,96819.38
2019-04-29T20:12:27.666Z,96818.38
2019-04-29T20:15:01.649Z,96819.25
2019-04-29T20:17:49.533Z,96823.76
2019-04-29T20:20:29.762Z,96825.97
2019-04-29T20:23:00.976Z,96817.03
2019-04-29T20:25:38.258Z,96812.05
2019-04-29T20:28:12.738Z,96819.25
2019-04-29T20:30:39.781Z,96810.31
2019-04-29T20:33:13.154Z,96810.83
2019-04-29T20:35:45.448Z,96807.75
2019-04-29T20:38:16.555Z,96813.13
2019-04-29T20:40:48.360Z,96809.48
2019-04-29T20:43:20.754Z,96816.20
2019-04-29T20:45:51.929Z,96810.44
2019-04-29T20:48:22.731Z,96809.09
2019-04-29T20:50:54.625Z,96814.47
2019-04-29T20:53:55.885Z,96814.47
2019-04-29T20:56:29.819Z,96802.38
2019-04-29T20:59:01.827Z,96811.78
2019-04-29T21:01:42.946Z,96810.09
2019-04-29T21:04:08.264Z,96813.25
2019-04-29T21:06:57.482Z,96808.36
2019-04-29T21:09:14.747Z,96806.66
2019-04-29T21:12:08.267Z,96810.09
2019-04-29T21:14:46.426Z,96801.63
2019-04-29T21:17:28.616Z,96807.02
2019-04-29T21:19:49.538Z,96814.22
2019-04-29T21:22:23.412Z,96800.77
2019-04-29T21:24:53.866Z,96803.45
2019-04-29T21:27:25.999Z,96806.66
2019-04-29T21:29:56.632Z,96804.45
2019-04-29T21:32:30.490Z,96798.20
2019-04-29T21:35:14.572Z,96789.78
2019-04-29T21:37:51.530Z,96795.16
2019-04-29T21:40:35.058Z,96794.66
2019-04-29T21:43:17.583Z,96800.55
2019-04-29T21:45:48.471Z,96794.78
2019-04-29T21:48:18.985Z,96796.56
2019-04-29T21:50:49.449Z,96790.27
2019-04-29T21:53:20.939Z,96789.84
2019-04-29T21:55:51.363Z,96796.12
2019-04-29T21:58:21.652Z,96788.50
2019-04-29T22:00:55.922Z,96789.41
2019-04-29T22:03:27.805Z,96788.92
2019-04-29T22:06:00.192Z,96787.93
2019-04-29T22:08:30.187Z,96796.86
2019-04-29T22:11:04.939Z,96795.52
2019-04-29T22:13:35.520Z,96795.22
2019-04-29T22:16:05.748Z,96792.95
2019-04-29T22:18:36.101Z,96794.88
2019-04-29T22:21:09.755Z,96799.77
2019-04-29T22:23:38.626Z,96795.73
2019-04-29T22:26:09.077Z,96796.70
2019-04-29T22:28:39.655Z,96800.73
2019-04-29T22:31:10.037Z,96804.77
2019-04-29T22:33:40.553Z,96802.08
2019-04-29T22:36:14.779Z,96796.70
2019-04-29T22:38:43.710Z,96797.69
2019-04-29T22:41:20.583Z,96787.77
2019-04-29T22:43:56.643Z,96782.90
2019-04-29T22:46:27.055Z,96784.72
2019-04-29T22:48:57.481Z,96787.89
2019-04-29T22:51:27.832Z,96784.85
2019-04-29T22:53:58.307Z,96783.98
2019-04-29T22:56:28.617Z,96781.30
2019-04-29T22:58:59.046Z,96775.05
2019-04-29T23:01:29.264Z,96776.05
2019-04-29T23:03:59.633Z,96781.90
2019-04-29T23:06:29.927Z,96774.80
2019-04-29T23:09:00.347Z,96770.77
2019-04-29T23:11:34.848Z,96769.06
2019-04-29T23:14:06.665Z,96774.05
2019-04-29T23:16:37.309Z,96770.02
2019-04-29T23:19:09.814Z,96768.33
2019-04-29T23:22:10.385Z,96771.63
2019-04-29T23:24:59.426Z,96762.56
2019-04-29T23:27:29.802Z,96756.36
2019-04-29T23:30:00.134Z,96756.48
2019-04-29T23:32:30.501Z,96750.72
2019-04-29T23:35:01.782Z,96756.97
2019-04-29T23:37:32.934Z,96744.99
2019-04-29T23:40:03.244Z,96743.65
2019-04-29T23:42:33.729Z,96739.70
2019-04-29T23:45:05.266Z,96743.74
2019-04-29T23:47:36.776Z,96739.70
2019-04-29T23:50:07.035Z,96735.67
2019-04-29T23:52:37.431Z,96729.09
2019-04-29T23:55:07.955Z,96733.98
2019-04-29T23:58:02.893Z,96729.21
